Tiempo atmosférico en la estación meteorológica de Aragüés Del Puerto, Huesca (1120 m.)

Fecha
DESCASC
Temp. máxima en grados centígrados (hora)
DESCASC
Temp. mínima en grados centígrados (hora)
DESCASC
Temp. media en grados centígrados
DESCASC
Racha de viento máxima en m/sg (hora)
DESCASC
Velocidad máxima media en intervalos de 10 minutos(hora)
DESCASC
Precipitaciones diarias en mm
DESCASC
Precipitaciones de 00:00 a 06:00 en mm
DESCASC
Precipitaciones de 06:00 a 12:00 en mm
DESCASC
Precipitaciones de 12:00 a 18:00 en mm
DESCASC
Precipitaciones de 18:00 a 24:00 en mm
DESCASC
24-09-2017 25.4 (15:10) 11.5 (05:30) 18.4 10.56 (17:00) 5 (14:00) 0 0 0 0 0
23-09-2017 23.2 (15:40) 9.2 (07:10) 16.2 6.39 (02:20) 4.44 (02:20) 0 0 0 0 0
22-09-2017 15.6 (17:20) 10.6 (23:00) 13.1 5.56 (02:00) 3.89 (01:40) 10.6 0 7.8 2.8 0
21-09-2017 25.3 (15:30) 9.8 (00:00) 17.5 6.11 (12:50) 4.17 (22:30) 0 0 0 0 0
20-09-2017 22.3 (15:40) 4.5 (00:00) 13.4 6.94 (15:00) 3.61 (15:10) 0 0 0 0 0
19-09-2017 18 (13:40) 3.5 (00:00) 10.8 12.5 (15:30) 6.67 (14:50) 0 0 0 0 0
18-09-2017 16.2 (17:20) 7 (00:00) 11.6 10 (14:30) 4.17 (15:00) 10.6 2.8 7.8 0 0
17-09-2017 16.3 (16:10) 4.1 (00:00) 10.2 7.78 (15:00) 4.17 (16:20) 0 0 0 0 0
16-09-2017 15.2 (13:10) 2.6 (00:00) 8.9 15 (15:30) 7.22 (15:20) 0 0 0 0 0
15-09-2017 17.1 (14:00) 5.5 (00:00) 11.3 13.06 (16:40) 6.39 (15:20) 0 0 0 0 0
14-09-2017 21.4 (11:50) 7.3 (00:00) 14.3 -- (--) -- (--) 0 0 0 0 0
13-09-2017 25.6 (17:20) 9.5 (00:00) 17.6 9.17 (14:10) 4.44 (21:30) 0 0 0 0 0
12-09-2017 19.1 (13:40) 9.8 (00:00) 14.5 -- (--) -- (--) 0 0 0 0 0
11-09-2017 19.9 (14:00) 10 (00:00) 14.9 -- (--) -- (--) 1.2 0 1.2 0 0
10-09-2017 15.8 (18:20) 5.9 (00:00) 10.9 12.5 (12:40) 6.11 (13:50) 7 2.8 4 0.2 0
09-09-2017 18.1 (16:10) 8.7 (00:00) 13.4 11.11 (17:40) 5.28 (14:10) 2 0 2 0 0
08-09-2017 24.2 (17:30) 5.8 (00:00) 15 7.5 (15:10) 3.89 (13:50) 0 0 0 0 0
07-09-2017 24 (15:50) 7.1 (00:00) 15.5 8.61 (15:20) 4.17 (15:20) 0 0 0 0 0
06-09-2017 25.9 (15:10) 11.4 (00:00) 18.6 8.89 (17:30) 4.72 (17:30) 0 0 0 0 0
05-09-2017 27.5 (16:30) 14.4 (00:00) 20.9 8.33 (18:50) 4.72 (07:00) 0 0 0 0 0
04-09-2017 24.9 (16:40) 13.5 (00:00) 19.2 7.22 (17:30) 3.89 (00:40) 1 0.4 0.4 0.2 0
03-09-2017 23.2 (16:40) 9.2 (00:00) 16.2 8.89 (18:20) 4.72 (17:40) 0 0 0 0 0
02-09-2017 20.7 (17:50) 8.2 (00:00) 14.5 13.33 (13:30) 7.22 (13:30) 0 0 0 0 0
01-09-2017 20.6 (16:10) 7.2 (00:00) 13.9 12.78 (15:20) 6.39 (15:10) 0 0 0 0 0
31-08-2017 20.4 (16:40) 10.3 (00:00) 15.3 9.17 (17:30) 4.17 (18:20) 11.6 8 3.4 0.2 0
30-08-2017 22.3 (14:30) 15 (00:00) 18.6 11.11 (02:20) 5.56 (11:20) -- -- -- 0 3
29-08-2017 25 (14:40) 15 (00:00) 20 14.17 (02:10) 8.33 (02:10) -- -- -- -- --
28-08-2017 31.4 (15:30) 15.8 (00:00) 23.6 11.67 (18:40) 6.11 (18:40) -- 0 0 -- --
27-08-2017 29.4 (14:40) 15.9 (00:00) 22.6 10.56 (16:50) 6.67 (06:00) 0 0 0 0 0
26-08-2017 31.6 (15:40) 17.3 (00:00) 24.4 13.61 (21:10) 7.22 (23:50) 0 0 0 0 0

Gráficas

Temp. máximas Temp. mínimas Temp. medias Precipitaciones Rachas de viento máximas Velocidades máximas media en intervalos de 10 minutos

Datos horarios

Fecha y hora oficial Temperatura (ºC) Velocidad del viento (km/h) Dirección del viento Racha (km/h) Dirección de racha Precipitación (mm) Presión (hPa) Tendencia (hPa) Humedad (%)
2017-09-24 23:00:00 16.5 12 Norte 20 Nordeste 0 904.4 0.4 49
2017-09-24 22:00:00 16.2 6 Norte 23 Nordeste 0 904.4 0.5 52
2017-09-24 21:00:00 17.2 10 Norte 22 Nordeste 0 904.2 0.2 48
2017-09-24 20:00:00 18.9 12 Norte 19 Nordeste 0 904 0 44
2017-09-24 19:00:00 22.4 4 Oeste 21 Sudoeste 0 903.9 -0.2 32
2017-09-24 18:00:00 24.2 9 Sudoeste 25 Sudoeste 0 904 -0.3 28
2017-09-24 17:00:00 24.6 14 Sudoeste 38 Sudoeste 0 904 -0.8 30
2017-09-24 16:00:00 25.1 12 Sudoeste 27 Sudoeste 0 904.1 -0.9 30
2017-09-24 15:00:00 25.1 17 Sudoeste 30 Sur 0 904.3 -1 29
2017-09-24 14:00:00 24.4 18 Sudoeste 30 Sudoeste 0 904.8 -0.6 31
2017-09-24 13:00:00 23.8 12 Sudoeste 24 Sudoeste 0 905 -0.3 32
2017-09-24 12:00:00 22.8 11 Sur 20 Sudoeste 0 905.3 0.3 32
2017-09-24 11:00:00 20.5 4 Sudeste 10 Nordeste 0 905.4 0.3 49
2017-09-24 10:00:00 17.3 5 Nordeste 19 Norte 0 905.3 0.3 57
2017-09-24 09:00:00 14.6 8 Nordeste 16 Norte 0 905 0.1 62
2017-09-24 08:00:00 13 8 Norte 14 Norte 0 905.1 0.1 66
2017-09-24 07:00:00 12.6 8 Norte 19 Nordeste 0 905 -0.1 65
2017-09-24 06:00:00 12.1 6 Norte 14 Nordeste 0 904.9 -0.4 67
2017-09-24 05:00:00 12.1 6 Norte 14 Nordeste 0 905 -0.4 68
2017-09-24 04:00:00 12 3 Norte 18 Nordeste 0 905.1 -0.1 67
2017-09-24 03:00:00 12.8 9 Norte 21 Nordeste 0 905.3 -0.1 61
2017-09-24 02:00:00 12.3 3 Norte 14 Nordeste 0 905.4 0.2 62
2017-09-24 01:00:00 14 11 Norte 19 Norte 0 905.2 0.3 56
2017-09-24 00:00:00 13.5 9 Norte 18 Nordeste 0 905.4 0.9 61
2017-09-23 23:00:00 13.7 5 Norte 22 Nordeste 0 905.2 1.2 66
2017-09-23 22:00:00 14.7 8 Norte 20 Norte 0 904.9 0.9 62
2017-09-23 21:00:00 15.7 7 Norte 20 Nordeste 0 904.5 0.6 54
2017-09-23 20:00:00 17.5 8 Norte 16 Nordeste 0 904 0 53
2017-09-23 19:00:00 20.6 6 Sudoeste 16 Sudoeste 0 904 -0.3 45
2017-09-23 18:00:00 22.4 8 Sur 19 Sudoeste 0 903.9 -0.8 39
2017-09-23 17:00:00 22.6 8 Noroeste 19 Sudoeste 0 904 -1 37
2017-09-23 16:00:00 22.8 11 Sudoeste 21 Sudoeste 0 904.3 -0.9 41
2017-09-23 15:00:00 22.4 8 Sur 21 Sudoeste 0 904.7 -0.9 41
2017-09-23 14:00:00 21.7 6 Sudeste 16 Sur 0 905 -0.5 43
2017-09-23 13:00:00 20.6 7 Sur 18 Sur 0 905.2 0.1 43
2017-09-23 12:00:00 19.3 10 Sur 16 Sur 0 905.6 0.7 48
2017-09-23 11:00:00 17.6 4 Sudeste 8 Sur 0 905.5 0.4 60
2017-09-23 10:00:00 13.8 3 Nordeste 19 Nordeste 0 905.1 0.3 72
2017-09-23 09:00:00 11.5 12 Nordeste 18 Nordeste 0 904.9 0.2 75
2017-09-23 08:00:00 9.4 9 Norte 17 Norte 0 905.1 0.2 80
2017-09-23 07:00:00 9.5 13 Norte 21 Norte 0 904.8 -0.4 81
2017-09-23 06:00:00 9.6 10 Norte 20 Norte 0 904.7 -0.8 81
2017-09-23 05:00:00 9.7 10 Norte 20 Nordeste 0 904.9 -1 82
2017-09-23 04:00:00 9.6 8 Norte 19 Norte 0 905.2 -1 84
2017-09-23 03:00:00 9.8 12 Norte 23 Nordeste 0 905.5 -0.6 85
2017-09-23 02:00:00 9.9 10 Norte 17 Norte 0 905.9 -0.1 87
2017-09-23 01:00:00 10.3 9 Norte 19 Nordeste 0 906.2 0.5 87
2017-09-23 00:00:00 10.7 12 Nordeste 20 Nordeste 0 906.1 0.8 86
2017-09-22 23:00:00 10.6 5 Norte 18 Nordeste 0 906 1 89
2017-09-22 22:00:00 11 6 Norte 17 Nordeste 0 905.7 0.6 88
2017-09-22 21:00:00 12 10 Norte 17 Nordeste 0 905.3 0.4 86
2017-09-22 20:00:00 12.9 12 Norte 15 Norte 0 905 0 88
2017-09-22 19:00:00 14.6 2 Noroeste 6 Sur 0 905.1 0 79
2017-09-22 18:00:00 15.2 4 Sur 11 Sur 0 904.9 -0.2 74
2017-09-22 17:00:00 15.2 5 Sudeste 9 Sudeste 0 905 -0.5 73
2017-09-22 16:00:00 14.1 2 Este 13 Sudoeste 0 905.1 -1.5 82
2017-09-22 15:00:00 13.1 6 Norte 19 Nordeste 0 905.1 -1.7 86
2017-09-22 14:00:00 11.7 8 Este 17 Norte 0.4 905.5 -0.4 91
2017-09-22 13:00:00 11.5 3 Noroeste 11 Nordeste 2.4 906.6 0.8 91
2017-09-22 12:00:00 11.3 6 Norte 15 Nordeste 3 906.8 1.3 91
2017-09-22 11:00:00 11.5 3 Oeste 10 Noroeste 1.4 905.9 1.1 92
2017-09-22 10:00:00 11.4 3 Norte 11 Nordeste 3 905.8 2.3 90
2017-09-22 09:00:00 11.4 5 Norte 19 Sudoeste 0.2 905.5 1.9 86
2017-09-22 08:00:00 11.5 3 Sudoeste 14 Oeste 0.2 904.8 0.9 77
2017-09-22 07:00:00 12.2 4 Noroeste 9 Norte 0 903.5 -0.2 72
2017-09-22 06:00:00 12.4 4 Norte 7 Oeste 0 903.6 -0.2 70
2017-09-22 05:00:00 12 4 Noroeste 7 Oeste 0 903.9 0 70
2017-09-22 04:00:00 13.4 6 Nordeste 13 Norte 0 903.7 0 63
2017-09-22 03:00:00 13.8 4 Norte 17 Nordeste 0 903.8 0.3 59
2017-09-22 02:00:00 13.7 13 Norte 20 Norte 0 903.9 0.9 58
2017-09-22 01:00:00 13.7 6 Norte 14 Norte 0 903.7 1.2 57
2017-09-22 00:00:00 13.8 5 Norte 9 Nordeste 0 903.5 1.4 54
2017-09-21 23:00:00 14.9 5 Nordeste 21 Norte 0 903 1.3 48
2017-09-21 22:00:00 15.9 10 Norte 17 Nordeste 0 902.5 1 44
2017-09-21 21:00:00 16.8 11 Nordeste 21 Nordeste 0 902.1 0.7 42
2017-09-21 20:00:00 18.8 10 Norte 16 Norte 0 901.7 0.4 37
2017-09-21 19:00:00 22 6 Sudoeste 15 Sudoeste 0 901.5 0.1 28
2017-09-21 18:00:00 24.4 7 Sudoeste 18 Oeste 0 901.4 -0.2 22
2017-09-21 17:00:00 24.4 9 Sudoeste 22 Sudoeste 0 901.3 -0.8 22
2017-09-21 16:00:00 25.1 9 Sur 21 Sudoeste 0 901.4 -1 18
2017-09-21 15:00:00 25 6 Sur 20 Sur 0 901.6 -0.9 19
2017-09-21 14:00:00 23.8 8 Sur 20 Sur 0 902.1 -0.5 21
2017-09-21 13:00:00 22.3 9 Sudoeste 22 Sudoeste 0 902.4 -0.1 26
2017-09-21 12:00:00 21.6 9 Sudoeste 18 Sudoeste 0 902.5 0.2 28
2017-09-21 11:00:00 19.6 4 Sudeste 8 Sur 0 902.6 0.5 29
2017-09-21 10:00:00 15.3 6 Nordeste 16 Nordeste 0 902.5 0.5 43
2017-09-21 09:00:00 12.9 5 Nordeste 15 Nordeste 0 902.3 0.1 41
2017-09-21 08:00:00 10.3 4 Norte 17 Norte 0 902.1 -0.3 53
2017-09-21 07:00:00 10.9 11 Norte 18 Norte 0 902 -0.6 51
2017-09-21 06:00:00 10.6 7 Norte 15 Norte 0 902.2 -0.9 59
2017-09-21 05:00:00 10.8 5 Este 15 Nordeste 0 902.4 -0.6 59
2017-09-21 04:00:00 11.6 10 Norte 18 Nordeste 0 902.6 -0.4 57
2017-09-21 03:00:00 10.9 3 Norte 19 Norte 0 903.1 0 60
2017-09-21 02:00:00 12.4 13 Norte 19 Norte 0 903 0.1 55
2017-09-21 01:00:00 12.5 12 Norte 17 Norte 0 903 0.2 56
2017-09-21 00:00:00 12.5 6 Norte 19 Nordeste 0 903.1 0.5 55
2017-09-20 23:00:00 13.3 12 Nordeste 23 Nordeste 0 902.9 0.2 53
2017-09-20 22:00:00 14 10 Norte 19 Nordeste 0 902.8 0.3 48
2017-09-20 21:00:00 14.5 12 Norte 22 Nordeste 0 902.6 0.1 49
2017-09-20 20:00:00 16.6 6 Nordeste 14 Norte 0 902.7 -0.2 39
2017-09-20 19:00:00 19.8 8 Sudoeste 21 Sudoeste 0 902.5 -0.6 29
2017-09-20 18:00:00 21.6 10 Sur 18 Sudoeste 0 902.5 -0.7 28
2017-09-20 17:00:00 22 10 Sur 22 Sudoeste 0 902.9 -0.5 27
2017-09-20 16:00:00 22.1 9 Sudoeste 22 Sudoeste 0 903.1 -0.8 24
2017-09-20 15:00:00 21.5 12 Sudoeste 25 Sudoeste 0 903.2 -0.9 25
2017-09-20 14:00:00 20.9 9 Sur 18 Sur 0 903.4 -0.8 27
2017-09-20 13:00:00 19.3 8 Sudeste 17 Sudeste 0 903.9 -0.3 29
2017-09-20 12:00:00 17.6 6 Sudeste 12 Sudeste 0 904.1 -0.3 31
2017-09-20 11:00:00 14.8 5 Sudeste 9 Sudeste 0 904.2 -0.4 35
2017-09-20 10:00:00 11.1 6 Nordeste 14 Nordeste 0 904.2 -0.3 52
2017-09-20 09:00:00 8 5 Nordeste 8 Norte 0 904.4 -0.3 62
2017-09-20 08:00:00 4.9 2 Oeste 7 Norte 0 904.6 -0.3 68
2017-09-20 07:00:00 5.6 2 Nordeste 6 Nordeste 0 904.5 -0.4 64
2017-09-20 06:00:00 5.3 2 Oeste 7 Nordeste 0 904.7 -0.5 66
2017-09-20 05:00:00 5.4 2 Nordeste 10 Norte 0 904.9 -0.5 66
2017-09-20 04:00:00 6 2 Nordeste 7 Nordeste 0 904.9 -0.5 62
2017-09-20 03:00:00 6.3 2 Sur 11 Norte 0 905.2 0 58
2017-09-20 02:00:00 6.7 4 Noroeste 13 Norte 0 905.4 0.1 59
2017-09-20 01:00:00 7.7 6 Norte 17 Norte 0 905.4 0.1 52
2017-09-20 00:00:00 8 5 Nordeste 12 Nordeste 0 905.2 0.3 52
2017-09-19 23:00:00 8.3 5 Norte 13 Norte 0 905.3 0.7 51
2017-09-19 22:00:00 9.2 3 Nordeste 10 Nordeste 0 905.3 0.9 50
2017-09-19 21:00:00 11.3 3 Sudeste 21 Oeste 0 904.9 0.7 42
2017-09-19 20:00:00 12.6 8 Noroeste 26 Noroeste 0 904.6 0.2 38
2017-09-19 19:00:00 14.9 12 Norte 28 Norte 0 904.4 -0.2 21
2017-09-19 18:00:00 15.7 9 Nordeste 28 Nordeste 0 904.2 -0.5 20
2017-09-19 17:00:00 16.3 14 Nordeste 30 Nordeste 0 904.4 -0.3 21
2017-09-19 16:00:00 16 18 Nordeste 45 Norte 0 904.6 -0.2 26
2017-09-19 15:00:00 15.9 23 Nordeste 40 Norte 0 904.7 -0.3 31
2017-09-19 14:00:00 17.2 18 Nordeste 37 Nordeste 0 904.7 -0.4 18
2017-09-19 13:00:00 16.8 12 Nordeste 26 Nordeste 0 904.8 0.2 21
2017-09-19 12:00:00 16.5 6 Sudeste 14 Sur 0 905 0.4 29
2017-09-19 11:00:00 13.8 5 Sudeste 10 Sudeste 0 905.1 0.4 46
2017-09-19 10:00:00 10.2 3 Este 15 Nordeste 0 904.6 0 62
2017-09-19 09:00:00 6.6 10 Nordeste 18 Nordeste 0 904.6 0.1 68
2017-09-19 08:00:00 4.4 11 Norte 19 Norte 0 904.7 0.1 75
2017-09-19 07:00:00 3.8 8 Norte 17 Norte 0 904.6 0 81
2017-09-19 06:00:00 4.5 8 Norte 17 Norte 0 904.5 0.1 78
2017-09-19 05:00:00 4.4 7 Norte 15 Nordeste 0 904.6 0 81
2017-09-19 04:00:00 5.5 10 Norte 19 Nordeste 0 904.6 0.2 76
2017-09-19 03:00:00 5.4 7 Norte 13 Norte 0 904.4 0.1 80
2017-09-19 02:00:00 5.6 2 Norte 13 Norte 0 904.6 0.2 81
2017-09-19 01:00:00 6.7 8 Norte 15 Norte 0 904.4 0.2 78
2017-09-19 00:00:00 7 2 Nordeste 8 Oeste 0 904.3 0.9 81
2017-09-18 23:00:00 7.9 4 Norte 13 Nordeste 0 904.4 1.8 75
2017-09-18 22:00:00 8.8 3 Nordeste 12 Nordeste 0 904.2 2 74
2017-09-18 21:00:00 10 6 Norte 12 Norte 0 903.4 1.3 71
2017-09-18 20:00:00 12 7 Norte 20 Norte 0 902.6 0.8 64
2017-09-18 19:00:00 13.2 6 Noroeste 20 Sudoeste 0 902.2 0.4 65
2017-09-18 18:00:00 13.8 11 Oeste 27 Oeste 0 902.1 0.5 66
2017-09-18 17:00:00 15.4 12 Oeste 32 Sudoeste 0 901.8 0.1 60
2017-09-18 16:00:00 14.9 14 Sudoeste 34 Sudoeste 0 901.8 -0.1 64
2017-09-18 15:00:00 14.7 15 Sudoeste 36 Sudoeste 0 901.6 -0.2 66
2017-09-18 14:00:00 14 13 Sudoeste 28 Sudoeste 0 901.7 0 69
2017-09-18 13:00:00 12.4 8 Sudoeste 22 Sudoeste 0 901.9 0.5 77
2017-09-18 12:00:00 10.5 7 Sur 12 Sur 0 901.8 0.6 89
2017-09-18 11:00:00 8.8 0 Calma 5 Sudeste 0 901.7 0.3 89
2017-09-18 10:00:00 8.3 2 Este 12 Nordeste 1 901.4 0.3 93
2017-09-18 09:00:00 7.3 5 Nordeste 15 Norte 1.6 901.2 -0.2 91
2017-09-18 08:00:00 7.1 9 Nordeste 27 Nordeste 1.8 901.4 0.5 90
2017-09-18 07:00:00 7.8 13 Norte 24 Norte 3.4 901.1 0.3 83
2017-09-18 06:00:00 8.5 7 Norte 14 Norte 2.8 901.4 0.4 88
2017-09-18 05:00:00 9.6 5 Noroeste 9 Oeste 0 900.9 -0.6 71
2017-09-18 04:00:00 9.9 4 Noroeste 10 Norte 0 900.8 -1 59
2017-09-18 03:00:00 10.1 7 Norte 12 Norte 0 901 -0.8 59
2017-09-18 02:00:00 9.6 2 Norte 11 Norte 0 901.5 -0.4 61
2017-09-18 01:00:00 9.3 2 Nordeste 11 Norte 0 901.8 0 60
2017-09-18 00:00:00 9.6 2 Norte 11 Norte 0 901.8 0.3 57
2017-09-17 23:00:00 11.3 5 Norte 9 Norte 0 901.9 0.9 54
2017-09-17 22:00:00 12 2 Norte 7 Nordeste 0 901.8 0.8 53
2017-09-17 21:00:00 12.6 4 Noroeste 9 Oeste 0 901.5 0.4 49
2017-09-17 20:00:00 13.3 5 Noroeste 12 Sudoeste 0 901 0 49
2017-09-17 19:00:00 14 4 Oeste 16 Oeste 0 901 -0.1 45
2017-09-17 18:00:00 14.5 6 Sudoeste 23 Oeste 0 901.1 -0.3 43
2017-09-17 17:00:00 15.3 9 Sudoeste 27 Sudoeste 0 901 -0.6 41
2017-09-17 16:00:00 15.7 12 Sudoeste 25 Sudoeste 0 901.1 -0.5 38
2017-09-17 15:00:00 15.3 11 Sudoeste 28 Sudoeste 0 901.4 -0.5 40
2017-09-17 14:00:00 14.4 11 Sudoeste 26 Sudoeste 0 901.6 -0.3 42
2017-09-17 13:00:00 13.2 8 Oeste 23 Oeste 0 901.6 0.1 48
2017-09-17 12:00:00 12.6 8 Oeste 27 Sudoeste 0 901.9 0.6 50
2017-09-17 11:00:00 12.2 11 Sudoeste 22 Sur 0 901.9 1.2 53
2017-09-17 10:00:00 7.9 2 Este 6 Sudeste 0 901.5 1.2 70
2017-09-17 09:00:00 6 0 Calma 5 Nordeste 0 901.3 0.8 77
2017-09-17 08:00:00 5.1 3 Nordeste 13 Nordeste 0 900.7 0.4 78
2017-09-17 07:00:00 5.3 5 Noroeste 8 Oeste 0 900.3 0.3 74
2017-09-17 06:00:00 4.6 2 Sudoeste 12 Norte 0 900.5 -0.1 76
2017-09-17 05:00:00 4.7 2 Norte 13 Sudoeste 0 900.3 -0.4 74
2017-09-17 04:00:00 4.8 2 Sudoeste 11 Nordeste 0 900 -0.6 72
2017-09-17 03:00:00 5 3 Norte 8 Norte 0 900.6 0.1 68
2017-09-17 02:00:00 5.1 2 Norte 10 Norte 0 900.7 0.5 68
2017-09-17 01:00:00 5 6 Norte 14 Norte 0 900.6 0.7 66
2017-09-17 00:00:00 5.4 5 Norte 14 Nordeste 0 900.5 1.5 64
2017-09-16 23:00:00 6.1 7 Norte 12 Norte 0 900.2 1.6 62
2017-09-16 22:00:00 6.9 6 Norte 12 Nordeste 0 899.9 1.9 59
2017-09-16 21:00:00 7.9 4 Norte 16 Norte 0 899 1.4 57
2017-09-16 20:00:00 9.8 13 Norte 26 Nordeste 0 898.6 1.3 47
2017-09-16 19:00:00 10.9 8 Norte 33 Sudoeste 0 898 1 51
2017-09-16 18:00:00 11.7 12 Sudoeste 42 Sudoeste 0 897.6 0.5 50
2017-09-16 17:00:00 14 9 Sudoeste 47 Sudoeste 0 897.3 -0.1 45
2017-09-16 16:00:00 13.8 20 Sudoeste 54 Sudoeste 0 897 -0.6 42
2017-09-16 15:00:00 14.4 21 Sudoeste 42 Sudoeste 0 897.1 -0.9 41
2017-09-16 14:00:00 14.1 18 Sudoeste 41 Sudoeste 0 897.4 -0.9 39
2017-09-16 13:00:00 14.6 12 Sudoeste 30 Sudoeste 0 897.6 -0.3 41
2017-09-16 12:00:00 13.4 11 Sudoeste 20 Sudoeste 0 898 0.5 46
2017-09-16 11:00:00 11.6 10 Sur 17 Sudeste 0 898.3 1.2 50
2017-09-16 10:00:00 9.2 4 Sudeste 10 Nordeste 0 897.9 1 59
2017-09-16 09:00:00 5.4 6 Nordeste 9 Nordeste 0 897.5 0.4 69
2017-09-16 08:00:00 2.8 0 Calma 11 Norte 0 897.1 0.1 81
2017-09-16 07:00:00 3.2 4 Norte 15 Nordeste 0 896.9 -0.3 81
2017-09-16 06:00:00 3.4 0 Calma 6 Oeste 0 897.1 -0.5 81
2017-09-16 05:00:00 3.6 4 Norte 8 Nordeste 0 897 -1.1 80
2017-09-16 04:00:00 4 4 Norte 11 Nordeste 0 897.2 -1.2 79
2017-09-16 03:00:00 4.2 6 Norte 12 Nordeste 0 897.6 -1.2 76
2017-09-16 02:00:00 4.6 4 Noroeste 12 Nordeste 0 898.1 -0.7 74
2017-09-16 01:00:00 5.6 6 Noroeste 12 Norte 0 898.4 -0.1 72
2017-09-16 00:00:00 5.5 3 Norte 14 Nordeste 0 898.8 1 70
2017-09-15 23:00:00 6.3 4 Norte 10 Nordeste 0 898.8 1.3 65
2017-09-15 22:00:00 7.3 3 Sudoeste 18 Oeste 0 898.5 1.1 60
2017-09-15 21:00:00 9.5 8 Noroeste 23 Noroeste 0 897.8 0.8 39
2017-09-15 20:00:00 10.4 6 Oeste 33 Norte 0 897.5 0.7 55
2017-09-15 19:00:00 12 9 Nordeste 32 Oeste 0 897.4 0.6 51
2017-09-15 18:00:00 13.7 14 Oeste 36 Nordeste 0 897 -0.1 49
2017-09-15 17:00:00 14.5 19 Nordeste 47 Sudoeste 0 896.8 -0.5 43
2017-09-15 16:00:00 15.3 10 Noroeste 37 Nordeste 0 896.8 -1 39
2017-09-15 15:00:00 14.4 16 Nordeste 30 Nordeste 0 897.1 -1.4 43
2017-09-15 14:00:00 15.7 14 Este 28 Nordeste 0 897.3 -1.7 36
2017-09-15 13:00:00 15.5 9 Sudeste 20 Sudeste 0 897.8 -1.3 37
2017-09-15 12:00:00 15.6 8 Sur 20 Sudoeste 0 898.5 -0.7 39
2017-09-15 11:00:00 13.2 8 Sur 14 Sur 0 899 -0.2 52
2017-09-15 10:00:00 11.6 5 Sudeste 12 Nordeste 0 899.1 -0.1 61
2017-09-15 09:00:00 7.4 3 Norte 9 Norte 0 899.2 -0.4 79
2017-09-15 08:00:00 6.9 3 Oeste 5 Sudeste 0 899.2 -0.4 83
2017-09-15 07:00:00 7.3 3 Sur 8 Noroeste 0 899.2 -0.9 80
2017-09-15 06:00:00 7.5 3 Norte 10 Norte 0 899.6 -1.4 78
2017-09-15 05:00:00 7.1 4 Nordeste 9 Noroeste 0 899.6 -1.1 83
2017-09-15 04:00:00 7.8 5 Oeste 14 Sudoeste 0 900.1 -0.7 76
2017-09-15 03:00:00 8 8 Sudoeste 14 Oeste 0 901 -0.4 69
2017-09-15 02:00:00 8.2 4 Oeste 10 Norte 0 900.7 -0.8 66
2017-09-15 01:00:00 7.3 3 Nordeste 18 Nordeste 0 900.8 -1.1 63
2017-09-15 00:00:00 7.6 3 Norte 8 Oeste 0 901.4 -0.4 67
2017-09-14 23:00:00 8.7 6 Norte 9 Nordeste 0 901.5 0.1 56
2017-09-14 22:00:00 8.8 3 Noroeste 6 Norte 0 901.9 0.6 65
2017-09-14 21:00:00 10.9 2 Norte 11 Este 0 901.8 0 57
2017-09-14 20:00:00 12.8 9 Este -- -- 0 901.4 -0.8 49
2017-09-14 19:00:00 15.6 -- -- -- -- 0 901.3 -1.4 33
2017-09-14 18:00:00 16.3 22 Nordeste 38 Nordeste 0 901.8 -1.4 33
2017-09-14 17:00:00 17.9 20 Nordeste 35 Norte 0 902.2 -1.1 33
2017-09-14 16:00:00 19.6 12 Este 36 Nordeste 0 902.7 -0.7 36
2017-09-14 15:00:00 18.2 15 Norte -- -- 0 903.2 -0.3 44
2017-09-14 14:00:00 20.1 13 Sur -- -- 0 903.3 0 40
2017-09-14 13:00:00 18 8 Oeste -- -- 0 903.4 0.1 50
2017-09-14 12:00:00 20.1 9 Nordeste 42 Nordeste 0 903.5 0.5 43
2017-09-14 11:00:00 20.4 7 Sudoeste 19 Oeste 0 903.3 0.6 50
2017-09-14 10:00:00 16.8 6 Sudeste -- -- 0 903.3 1.2 67
2017-09-14 09:00:00 14.8 3 Sudoeste -- -- 0 903 1 71
2017-09-14 08:00:00 12.6 4 Norte -- -- 0 902.7 0.5 74
2017-09-14 07:00:00 13.5 4 Nordeste 17 Nordeste 0 902.1 -0.6 69
2017-09-14 06:00:00 14.8 7 Norte 22 Norte 0 902 -1.4 63
2017-09-14 05:00:00 15.4 12 Nordeste 21 Norte 0 902.2 -1.6 62
2017-09-14 04:00:00 15.7 17 Nordeste 23 Nordeste 0 902.7 -1.3 61
2017-09-14 03:00:00 16.1 14 Nordeste 20 Norte 0 903.4 -1 60
2017-09-14 02:00:00 16 6 Norte 22 Nordeste 0 903.8 -0.7 60
2017-09-14 01:00:00 16.7 15 Norte 22 Norte 0 904 -0.7 58
2017-09-14 00:00:00 16.6 6 Norte 22 Nordeste 0 904.4 0 57
2017-09-13 23:00:00 17.6 16 Nordeste 25 Nordeste 0 904.5 0.4 54
2017-09-13 22:00:00 17.9 14 Norte 23 Norte 0 904.7 0.2 54
2017-09-13 21:00:00 18.6 14 Nordeste 23 Nordeste 0 904.4 -0.4 51
2017-09-13 20:00:00 20.1 4 Nordeste 9 Sudoeste 0 904.1 -1.3 47
2017-09-13 19:00:00 23.4 8 Sur 12 Sur 0 904.5 -1.3 36
2017-09-13 18:00:00 24.9 6 Sudoeste 24 Oeste 0 904.8 -1.5 32
2017-09-13 17:00:00 25 10 Sur 24 Oeste 0 905.4 -1.2 32
2017-09-13 16:00:00 25.1 11 Sudoeste 28 Sur 0 905.8 -1.1 35
2017-09-13 15:00:00 24.3 9 Sudoeste 33 Sudoeste 0 906.3 -0.6 36
2017-09-13 14:00:00 24.6 10 Sur 23 Oeste 0 906.6 -0.5 35
2017-09-13 13:00:00 23.2 12 Sudoeste 22 Sudoeste 0 906.9 0.2 36
2017-09-13 12:00:00 22.3 7 Sur 14 Sur 0 906.9 0.4 40
2017-09-13 11:00:00 18.9 5 Sur 10 Sudeste 0 907.1 0.9 48
2017-09-13 10:00:00 16.4 4 Sudeste 16 Norte 0 906.7 1 57
2017-09-13 09:00:00 12.5 9 Nordeste 13 Nordeste 0 906.5 0.9 72
2017-09-13 08:00:00 9.9 2 Sudoeste 6 Nordeste 0 906.2 0.3 80
2017-09-13 07:00:00 9.9 3 Oeste -- -- 0 905.7 -0.2 79
2017-09-13 06:00:00 10.4 6 Norte 11 Nordeste 0 905.6 -0.1 75
2017-09-13 05:00:00 10.1 0 Calma 5 Norte 0 905.9 0.1 75
2017-09-13 04:00:00 10.4 3 Norte -- -- 0 905.9 0.1 73
2017-09-13 03:00:00 11.1 3 Norte 10 Norte 0 905.7 -0.1 67
2017-09-13 02:00:00 11.3 3 Noroeste 11 Nordeste 0 905.8 0.3 65
2017-09-13 01:00:00 12.1 4 Norte 13 Norte 0 905.8 0.6 58
2017-09-13 00:00:00 11.5 5 Norte 13 Nordeste 0 905.8 1.4 58
2017-09-12 23:00:00 10.9 5 Nordeste -- -- 0 905.5 1.7 59
2017-09-12 22:00:00 11.9 -- -- -- -- 0 905.2 1.8 53
2017-09-12 21:00:00 13.2 -- -- -- -- 0 904.4 1.3 45
2017-09-12 20:00:00 15 -- -- -- -- 0 903.8 1 36
2017-09-12 19:00:00 16.1 -- -- -- -- 0 903.4 0.9 39
2017-09-12 18:00:00 17.5 -- -- -- -- 0 903.1 0.8 37
2017-09-12 17:00:00 17.6 -- -- -- -- 0 902.8 0.5 37
2017-09-12 16:00:00 17.9 -- -- -- -- 0 902.5 0.5 35
2017-09-12 15:00:00 17.8 -- -- -- -- 0 902.3 0.6 33
2017-09-12 14:00:00 17.8 -- -- -- -- 0 902.3 0.9 41
2017-09-12 13:00:00 17.6 -- -- -- -- 0 902 0.9 38
2017-09-12 12:00:00 16.7 7 Norte 27 Nordeste 0 901.7 1.7 43
2017-09-12 11:00:00 16.1 15 Norte 30 Norte 0 901.4 1.8 40
2017-09-12 10:00:00 13.3 7 Oeste -- -- 0 901.1 2.1 61
2017-09-12 09:00:00 10.7 10 Oeste -- -- 0 900 0.9 74
2017-09-12 08:00:00 10.4 -- -- -- -- 0 899.6 0.5 75
2017-09-12 07:00:00 10 8 Norte -- -- 0 899 -0.1 77
2017-09-12 06:00:00 10.3 10 Oeste 29 Oeste 0 899.1 0.2 77
2017-09-12 05:00:00 10.7 10 Oeste 28 Oeste 0 899.1 0.5 75
2017-09-12 04:00:00 10.7 13 Noroeste 27 Oeste 0 899.1 0.4 76
2017-09-12 03:00:00 10.9 5 Oeste 12 Sur 0 898.9 -0.4 75
2017-09-12 02:00:00 11.8 3 Norte 23 Oeste 0 898.6 -0.1 71
2017-09-12 01:00:00 12.3 5 Oeste 16 Oeste 0 898.7 0 68
2017-09-12 00:00:00 12.2 3 Oeste 17 Noroeste 0 899.3 1.1 69
2017-09-11 23:00:00 12.6 6 Norte 16 Noroeste 0 898.7 0.7 71
2017-09-11 22:00:00 13.1 6 Noroeste 16 Sudoeste 0 898.7 1 72
2017-09-11 21:00:00 13.8 11 Sudoeste 19 Sudoeste 0 898.2 0.1 67
2017-09-11 20:00:00 15.2 9 Sudoeste 19 Oeste 0 898 0 60
2017-09-11 19:00:00 17 8 Noroeste 29 Sudoeste 0 897.7 -0.3 51
2017-09-11 18:00:00 18.1 14 Sudoeste -- -- 0 898.1 -0.3 48
2017-09-11 17:00:00 19.1 -- -- -- -- 0 898 0.4 48
2017-09-11 16:00:00 19.8 9 Oeste -- -- 0 898 0.4 41
2017-09-11 15:00:00 19.3 9 Oeste 45 Oeste 0 898.4 0.7 43
2017-09-11 14:00:00 19.7 16 Sudoeste -- -- 0 897.6 -0.1 53
2017-09-11 13:00:00 18.3 17 Sudoeste -- -- -- 897.6 0.7 60
2017-09-11 12:00:00 17.8 9 Sudoeste 22 Noroeste 0 897.7 0.7 66
2017-09-11 11:00:00 16.2 10 Sudoeste 22 Sudoeste 0 897.7 1 82
2017-09-11 10:00:00 14.2 7 Oeste 17 Oeste 0 896.9 0.1 88
2017-09-11 09:00:00 13.1 7 Oeste 16 Oeste 0.2 897 -0.1 90
2017-09-11 08:00:00 12.7 2 Noroeste 10 Noroeste 0.8 896.7 -0.5 91
2017-09-11 07:00:00 12.8 3 Sur 15 Oeste 0.2 896.8 -0.7 90
2017-09-11 06:00:00 12.8 7 Oeste 15 Noroeste 0 897.1 -0.5 88
2017-09-11 05:00:00 11.3 2 Sudoeste 10 Noroeste 0 897.2 -0.6 89
2017-09-11 04:00:00 11.1 3 Oeste 7 Oeste 0 897.5 -0.2 85
2017-09-11 03:00:00 10.5 3 Norte 8 Oeste 0 897.6 -0.6 84
2017-09-11 02:00:00 10.6 3 Este 12 Oeste 0 897.8 -0.3 79
2017-09-11 01:00:00 10 5 Norte 12 Oeste 0 897.7 -0.7 74
2017-09-11 00:00:00 10.6 6 Sudoeste 11 Sudoeste 0 898.2 0.3 70
2017-09-10 23:00:00 11 4 Sudeste 18 Oeste 0 898.1 0.6 68
2017-09-10 22:00:00 11.6 6 Oeste 20 Sudoeste 0 898.4 1.2 67
2017-09-10 21:00:00 11.5 10 Sudoeste 27 Sudoeste 0 897.9 0.7 70
2017-09-10 20:00:00 11.9 9 Noroeste 40 Oeste 0 897.5 0.4 70
2017-09-10 19:00:00 14 8 Oeste 30 Oeste 0 897.2 0.1 64
2017-09-10 18:00:00 15.5 9 Oeste 37 Oeste 0 897.2 0.2 50
2017-09-10 17:00:00 14.5 10 Noroeste 37 Oeste 0 897.1 0.6 61
2017-09-10 16:00:00 13.9 10 Oeste 32 Nordeste 0 897.1 0.6 62
2017-09-10 15:00:00 14.1 6 Noroeste 34 Noroeste 0 897 0.8 55
2017-09-10 14:00:00 13.7 13 Nordeste 41 Nordeste 0 896.5 0.6 51
2017-09-10 13:00:00 14.5 11 Sudoeste 45 Nordeste 0.2 896.5 1.2 54
2017-09-10 12:00:00 14.4 6 Sur 24 Sudoeste 0 896.2 0.8 57
2017-09-10 11:00:00 11.9 13 Sudoeste 23 Sudoeste 0 895.9 1 69
2017-09-10 10:00:00 10.2 5 Nordeste 22 Oeste 0 895.3 0.8 79
2017-09-10 09:00:00 6.7 7 Sudoeste 15 Oeste 1.6 895.4 1.2 93
2017-09-10 08:00:00 6.3 3 Norte 8 Noroeste 2 894.9 0.9 92
2017-09-10 07:00:00 6.1 2 Nordeste 13 Noroeste 0.4 894.5 0.3 90
2017-09-10 06:00:00 6 4 Sudoeste 12 Oeste 0 894.2 0.3 89
2017-09-10 05:00:00 6.3 3 Norte 26 Noroeste 0.8 894 0.2 89
2017-09-10 04:00:00 7.2 10 Norte 31 Noroeste 1.8 894.2 0.4 84
2017-09-10 03:00:00 6.9 3 Sudoeste 26 Noroeste 0.2 893.9 0.3 82
2017-09-10 02:00:00 7.8 9 Oeste 21 Noroeste 0 893.8 0.3 76
2017-09-10 01:00:00 8.5 6 Norte 30 Sudoeste 0 893.8 0.7 66
2017-09-10 00:00:00 9.2 4 Oeste 28 Noroeste 0 893.6 0.9 60
2017-09-09 23:00:00 9.7 10 Oeste 29 Oeste 0 893.5 0.9 64
2017-09-09 22:00:00 11.1 9 Noroeste 36 Oeste 0 893.1 0.6 52
2017-09-09 21:00:00 11.4 11 Oeste 32 Oeste 0 892.7 0.6 53
2017-09-09 20:00:00 12.1 10 Noroeste 28 Oeste 0 892.6 0.5 53
2017-09-09 19:00:00 13.9 8 Oeste 28 Sudoeste 0 892.5 0.6 52
2017-09-09 18:00:00 15 10 Oeste 40 Sudoeste 0 892.1 -0.1 50
2017-09-09 17:00:00 16.4 9 Oeste 36 Norte 0 892.1 0.2 43
2017-09-09 16:00:00 17.8 7 Noroeste 39 Oeste 0 891.9 -0.7 41
2017-09-09 15:00:00 16.2 9 Norte 33 Nordeste 0 892.2 -1.1 43
2017-09-09 14:00:00 16.7 12 Nordeste 28 Sudoeste 0 891.9 -2 43
2017-09-09 13:00:00 15.3 8 Sudoeste 16 Sudoeste 0 892.6 -0.6 58
2017-09-09 12:00:00 12.2 5 Sur 14 Sudoeste 0.2 893.3 0.6 79
2017-09-09 11:00:00 11.1 8 Noroeste 22 Noroeste 0.8 893.9 1 77
2017-09-09 10:00:00 11.3 5 Nordeste 27 Noroeste 1 893.2 0.1 85
2017-09-09 09:00:00 12 4 Norte 10 Nordeste 0 892.7 -0.8 78
2017-09-09 08:00:00 12.3 5 Noroeste 11 Nordeste 0 892.9 -0.6 65
2017-09-09 07:00:00 12.2 2 Nordeste 6 Norte 0 893.1 -0.5 60
2017-09-09 06:00:00 12.2 3 Norte 12 Norte 0 893.5 -1.1 58
2017-09-09 05:00:00 12 3 Norte 6 Sudoeste 0 893.5 -1.7 55
2017-09-09 04:00:00 13.8 3 Noroeste 13 Norte 0 893.6 -2.2 45
2017-09-09 03:00:00 14.2 6 Norte 20 Norte 0 894.6 -1.5 44
2017-09-09 02:00:00 13.2 2 Norte 12 Norte 0 895.2 -1.3 47
2017-09-09 01:00:00 14.1 8 Norte 17 Norte 0 895.8 -1 43
2017-09-09 00:00:00 14.2 4 Norte 10 Nordeste 0 896.1 -0.7 40
2017-09-08 23:00:00 15.1 4 Norte 20 Nordeste 0 896.5 -0.1 36
2017-09-08 22:00:00 15.9 6 Norte 20 Norte 0 896.8 -0.5 34
2017-09-08 21:00:00 17 10 Norte 21 Nordeste 0 896.8 -0.8 31
2017-09-08 20:00:00 19.7 4 Norte 15 Sudoeste 0 896.6 -1.3 25
2017-09-08 19:00:00 22.7 9 Sudoeste 21 Sudoeste 0 897.3 -1.2 18
2017-09-08 18:00:00 23.7 10 Sudoeste 22 Sudoeste 0 897.6 -1.4 14
2017-09-08 17:00:00 23.8 10 Sur 24 Sudoeste 0 897.9 -1.6 18
2017-09-08 16:00:00 23.4 13 Sudoeste 27 Sudoeste 0 898.5 -1.7 20
2017-09-08 15:00:00 23.2 13 Sudoeste 26 Sudoeste 0 899 -1.6 20
2017-09-08 14:00:00 22.6 13 Sudoeste 23 Sudoeste 0 899.5 -1.2 22
2017-09-08 13:00:00 21.6 8 Sudoeste 17 Sudoeste 0 900.2 -0.5 24
2017-09-08 12:00:00 19.2 6 Sur 12 Sudeste 0 900.6 0 31
2017-09-08 11:00:00 16.1 4 Sudeste 8 Sudeste 0 900.7 0.2 40
2017-09-08 10:00:00 12.3 3 Este 5 Este 0 900.7 0.2 48
2017-09-08 09:00:00 9.3 0 Calma 6 Noroeste 0 900.6 -0.3 53
2017-09-08 08:00:00 6.8 4 Norte 6 Norte 0 900.5 -0.8 61
2017-09-08 07:00:00 6.9 3 Oeste 5 Oeste 0 900.5 -1 67
2017-09-08 06:00:00 7.4 0 Calma 6 Sur 0 900.9 -0.9 65
2017-09-08 05:00:00 7.6 2 Este 5 Norte 0 901.3 -0.8 61
2017-09-08 04:00:00 8 2 Norte 7 Noroeste 0 901.5 -0.6 65
2017-09-08 03:00:00 8.5 2 Norte 8 Nordeste 0 901.8 -0.3 64
2017-09-08 02:00:00 9.1 3 Norte 9 Norte 0 902.1 -0.3 62
2017-09-08 01:00:00 10 2 Sudoeste 8 Nordeste 0 902.1 -0.4 56
2017-09-08 00:00:00 11.5 4 Noroeste 11 Nordeste 0 902.1 0.3 52
2017-09-07 23:00:00 13.1 4 Norte 8 Nordeste 0 902.4 0.8 46
2017-09-07 22:00:00 14.1 4 Sur 10 Sudoeste 0 902.5 1.1 45
2017-09-07 21:00:00 16.8 4 Sur 17 Noroeste 0 901.8 0.4 35
2017-09-07 20:00:00 18.8 13 Noroeste 22 Oeste 0 901.6 0.1 30
2017-09-07 19:00:00 21.1 8 Oeste 19 Norte 0 901.4 -0.4 23
2017-09-07 18:00:00 23.1 5 Noroeste 24 Oeste 0 901.4 -0.9 19
2017-09-07 17:00:00 23.1 12 Noroeste 29 Noroeste 0 901.5 -1.3 27
2017-09-07 16:00:00 23.7 13 Sudoeste 31 Sudoeste 0 901.8 -1.6 24
2017-09-07 15:00:00 22.8 13 Sur 24 Sudoeste 0 902.3 -1.6 29
2017-09-07 14:00:00 21.2 10 Sur 20 Sudoeste 0 902.8 -1.2 36
2017-09-07 13:00:00 19.6 10 Sur 17 Sur 0 903.4 -0.4 44
2017-09-07 12:00:00 17.7 9 Sudeste 17 Sur 0 903.9 -0.1 46
2017-09-07 11:00:00 15.1 8 Sur 13 Sur 0 904 0.1 57
2017-09-07 10:00:00 11.9 3 Este 8 Este 0 903.8 0.1 65
2017-09-07 09:00:00 9.2 4 Nordeste 9 Nordeste 0 904 -0.1 72
2017-09-07 08:00:00 7.3 4 Norte 8 Norte 0 903.9 -0.4 76
2017-09-07 07:00:00 7.7 4 Nordeste 11 Norte 0 903.7 -0.8 77
2017-09-07 06:00:00 7.9 4 Norte 10 Noroeste 0 904.1 -0.8 78
2017-09-07 05:00:00 8.8 4 Norte 13 Nordeste 0 904.3 -1.1 72
2017-09-07 04:00:00 9 0 Calma 10 Nordeste 0 904.5 -1.1 78
2017-09-07 03:00:00 9.3 3 Nordeste 8 Oeste 0 904.9 -0.6 79
2017-09-07 02:00:00 10.4 6 Norte 10 Nordeste 0 905.4 -0.1 76
2017-09-07 01:00:00 11 6 Norte 10 Nordeste 0 905.6 0.2 75
2017-09-07 00:00:00 11.4 4 Norte 12 Norte 0 905.5 0.5 75
2017-09-06 23:00:00 12.2 4 Nordeste 9 Norte 0 905.5 0.7 72
2017-09-06 22:00:00 13 3 Norte 7 Nordeste 0 905.4 0.6 70
2017-09-06 21:00:00 15.4 2 Nordeste 7 Este 0 905 0.2 62
2017-09-06 20:00:00 18 3 Sur 12 Sudeste 0 904.8 -0.4 56
2017-09-06 19:00:00 20.7 6 Este 26 Sudoeste 0 904.8 -0.9 46
2017-09-06 18:00:00 22.4 15 Sudoeste 32 Sudoeste 0 904.8 -1.4 39
2017-09-06 17:00:00 23.7 12 Oeste 31 Oeste 0 905.2 -1.5 37
2017-09-06 16:00:00 24.9 14 Sudoeste 30 Sudoeste 0 905.7 -1.7 31
2017-09-06 15:00:00 25.7 9 Sudoeste 21 Sudoeste 0 906.2 -1.4 33
2017-09-06 14:00:00 24.8 9 Sudeste 25 Sudoeste 0 906.7 -0.9 33
2017-09-06 13:00:00 23.9 6 Sur 19 Sudeste 0 907.4 -0.3 39
2017-09-06 12:00:00 21.9 6 Sur 14 Sur 0 907.6 -0.1 49
2017-09-06 11:00:00 20 6 Sudeste 12 Sudeste 0 907.6 0 52
2017-09-06 10:00:00 17.2 4 Este 11 Nordeste 0 907.7 0.6 65
2017-09-06 09:00:00 14.2 6 Nordeste 14 Nordeste 0 907.7 0.5 70
2017-09-06 08:00:00 12.4 0 Calma 5 Nordeste 0 907.6 0.3 83
2017-09-06 07:00:00 12.9 0 Calma 4 Oeste 0 907.1 -0.5 81
2017-09-06 06:00:00 13.4 3 Oeste 8 Norte 0 907.2 -0.7 78
2017-09-06 05:00:00 13.2 2 Norte 4 Norte 0 907.3 -0.5 77
2017-09-06 04:00:00 13.2 3 Norte 6 Nordeste 0 907.6 -0.4 75
2017-09-06 03:00:00 13.5 0 Calma 4 Nordeste 0 907.9 0 75
2017-09-06 02:00:00 14.4 2 Norte 10 Norte 0 907.8 0.2 69
2017-09-06 01:00:00 16 2 Sudoeste 20 Norte 0 908 0.3 66
2017-09-06 00:00:00 16.5 10 Nordeste 19 Nordeste 0 907.9 0.8 60
2017-09-05 23:00:00 17.2 4 Norte 12 Oeste 0 907.6 1.1 66
2017-09-05 22:00:00 18.8 3 Nordeste 15 Norte 0 907.7 1.5 64
2017-09-05 21:00:00 20.7 7 Norte 19 Norte 0 907.1 1 57
2017-09-05 20:00:00 22.6 9 Norte 27 Sudoeste 0 906.5 0.4 52
2017-09-05 19:00:00 24.9 14 Oeste 30 Sudoeste 0 906.2 0 46
2017-09-05 18:00:00 27.2 8 Sudoeste 26 Sudoeste 0 906.1 -0.7 36
2017-09-05 17:00:00 26.7 8 Sudoeste 24 Sudoeste 0 906.1 -1 36
2017-09-05 16:00:00 26.3 9 Sur 18 Sur 0 906.2 -1.4 36
2017-09-05 15:00:00 25.7 6 Sudeste 18 Sudeste 0 906.8 -1 39
2017-09-05 14:00:00 25 8 Sur 18 Sur 0 907.1 -0.4 43
2017-09-05 13:00:00 22.6 5 Oeste 19 Sur 0 907.6 0.6 53
2017-09-05 12:00:00 24.1 9 Sur 15 Sur 0 907.8 1 48
2017-09-05 11:00:00 21.7 5 Este 15 Nordeste 0 907.5 0.9 59
2017-09-05 10:00:00 19.1 12 Nordeste 20 Norte 0 907 0.7 64
2017-09-05 09:00:00 16.3 13 Nordeste 23 Nordeste 0 906.8 0.5 74
2017-09-05 08:00:00 14.6 13 Nordeste 21 Nordeste 0 906.6 0.3 81
2017-09-05 07:00:00 14.7 17 Norte 22 Norte 0 906.3 -0.2 81
2017-09-05 06:00:00 15 10 Nordeste 22 Norte 0 906.3 0.1 81
2017-09-05 05:00:00 15.1 15 Nordeste 23 Nordeste 0 906.3 0.1 79
2017-09-05 04:00:00 15.3 6 Norte 21 Nordeste 0 906.5 0.6 78
2017-09-05 03:00:00 15.8 13 Norte 22 Norte 0 906.2 0.3 74
2017-09-05 02:00:00 15.9 12 Norte 19 Norte 0 906.2 0.6 74
2017-09-05 01:00:00 16 13 Norte 19 Nordeste 0 905.9 0.8 74
2017-09-05 00:00:00 16 11 Norte 18 Norte 0 905.9 1.6 75
2017-09-04 23:00:00 16.6 10 Norte 16 Norte 0 905.6 2.1 74
2017-09-04 22:00:00 17.8 9 Norte 15 Norte 0 905.1 1.9 70
2017-09-04 21:00:00 18.9 2 Norte 12 Sudoeste 0 904.3 1.6 65
2017-09-04 20:00:00 21.2 4 Oeste 18 Sudoeste 0 903.5 1 56
2017-09-04 19:00:00 23.1 9 Sudoeste 23 Sudoeste 0 903.2 0.7 49
2017-09-04 18:00:00 24.6 12 Sudoeste 26 Sudoeste 0 902.7 0.1 41
2017-09-04 17:00:00 24.6 8 Sudoeste 21 Sur 0 902.5 0 40
2017-09-04 16:00:00 23.3 6 Oeste 16 Oeste 0 902.5 0.3 48
2017-09-04 15:00:00 21.3 5 Este 14 Sudoeste 0 902.6 0.8 51
2017-09-04 14:00:00 20.6 5 Sudoeste 22 Sudoeste 0.2 902.5 1.1 59
2017-09-04 13:00:00 21.1 9 Sur 25 Sudoeste 0 902.2 1.4 54
2017-09-04 12:00:00 20.5 5 Oeste 19 Sudoeste 0 901.8 1.7 58
2017-09-04 11:00:00 19.8 10 Sudoeste 17 Sudoeste 0 901.4 1.8 60
2017-09-04 10:00:00 16.7 4 Este 9 Nordeste 0 900.8 1.7 79
2017-09-04 09:00:00 14.1 3 Oeste 14 Nordeste 0 900.1 1.1 86
2017-09-04 08:00:00 13.6 3 Norte 19 Nordeste 0.4 899.6 0.7 88
2017-09-04 07:00:00 14 2 Nordeste 13 Norte 0 899.1 0 85
2017-09-04 06:00:00 14.1 5 Noroeste 15 Nordeste 0 899 -0.1 81
2017-09-04 05:00:00 14.2 4 Norte 10 Nordeste 0 898.9 -0.2 81
2017-09-04 04:00:00 14.3 10 Nordeste 19 Nordeste 0 899.1 0 83
2017-09-04 03:00:00 14.3 12 Norte 20 Norte 0 899.1 -1 84
2017-09-04 02:00:00 14.4 4 Nordeste 21 Nordeste 0 899.1 -0.9 85
2017-09-04 01:00:00 14.6 12 Nordeste 21 Nordeste 0.4 899.1 -0.2 86
2017-09-04 00:00:00 16.3 2 Sur 12 Nordeste 0 900.1 1 74
2017-09-03 23:00:00 16.9 3 Nordeste 11 Oeste 0 900 0.7 65
2017-09-03 22:00:00 17.4 8 Norte 11 Norte 0 899.3 0 63
2017-09-03 21:00:00 18.3 5 Norte 15 Noroeste 0 899.1 -0.1 58
2017-09-03 20:00:00 19.4 8 Oeste 17 Oeste 0 899.3 -0.3 52
2017-09-03 19:00:00 20.3 8 Oeste 32 Sudoeste 0 899.3 -0.7 47
2017-09-03 18:00:00 21.5 13 Sudoeste 30 Sudoeste 0 899.2 -1.4 41
2017-09-03 17:00:00 22 13 Sudoeste 28 Sudoeste 0 899.6 -1.3 34
2017-09-03 16:00:00 22 9 Sur 29 Sudoeste 0 900 -1.1 34
2017-09-03 15:00:00 20.7 15 Sudoeste 30 Oeste 0 900.6 -1.2 30
2017-09-03 14:00:00 20.4 9 Sudoeste 22 Sudoeste 0 900.9 -1.3 31
2017-09-03 13:00:00 19.1 8 Sur 23 Sudoeste 0 901.1 -0.8 29
2017-09-03 12:00:00 16.4 6 Sudeste 9 Sudeste 0 901.8 0.1 39
2017-09-03 11:00:00 15.4 3 Sudeste 17 Sur 0 902.2 0.1 38
2017-09-03 10:00:00 13.1 9 Oeste 26 Noroeste 0 901.9 0.1 46
2017-09-03 09:00:00 11.7 6 Noroeste 14 Sudoeste 0 901.7 -0.5 41
2017-09-03 08:00:00 11 6 Norte 11 Norte 0 902.1 -0.6 39
2017-09-03 07:00:00 10.5 4 Noroeste 8 Oeste 0 901.8 -1.4 34
2017-09-03 06:00:00 10 4 Norte 9 Norte 0 902.2 -1.2 41
2017-09-03 05:00:00 10.2 5 Norte 13 Norte 0 902.7 -1.4 46
2017-09-03 04:00:00 9.5 3 Nordeste 7 Noroeste 0 903.2 -1 52
2017-09-03 03:00:00 9.9 3 Sudoeste 13 Nordeste 0 903.4 -1.1 53
2017-09-03 02:00:00 9.9 5 Noroeste 13 Norte 0 904.1 -0.5 51
2017-09-03 01:00:00 10.3 2 Norte 17 Nordeste 0 904.2 -0.3 51
2017-09-03 00:00:00 10.7 7 Nordeste 18 Norte 0 904.5 0.4 58
2017-09-02 23:00:00 11.4 8 Norte 21 Norte 0 904.6 0.8 53
2017-09-02 22:00:00 12.5 9 Norte 22 Nordeste 0 904.5 0.7 51
2017-09-02 21:00:00 13.9 7 Norte 13 Nordeste 0 904.1 0.2 49
2017-09-02 20:00:00 17 6 Oeste 18 Sudoeste 0 903.8 -0.5 37
2017-09-02 19:00:00 19.9 5 Sur 17 Sudoeste 0 903.8 -1.2 29
2017-09-02 18:00:00 20.5 8 Noroeste 24 Nordeste 0 903.9 -1.6 28
2017-09-02 17:00:00 18.9 13 Nordeste 36 Nordeste 0 904.3 -1.4 29
2017-09-02 16:00:00 18.3 20 Nordeste 44 Nordeste 0 905 -1.2 32
2017-09-02 15:00:00 17.5 24 Nordeste 42 Nordeste 0 905.5 -0.7 35
2017-09-02 14:00:00 17.2 19 Nordeste 48 Nordeste 0 905.7 -0.5 38
2017-09-02 13:00:00 17 14 Nordeste 28 Nordeste 0 906.2 0.2 43
2017-09-02 12:00:00 16.3 10 Nordeste 22 Nordeste 0 906.2 0.4 43
2017-09-02 11:00:00 15.6 12 Nordeste 22 Nordeste 0 906.2 0.7 46
2017-09-02 10:00:00 13.4 9 Sudoeste 23 Sudoeste 0 906 0.9 56
2017-09-02 09:00:00 8.7 3 Noroeste 11 Norte 0 905.8 0.9 71
2017-09-02 08:00:00 8.5 5 Oeste 20 Oeste 0 905.5 0.7 67
2017-09-02 07:00:00 9.2 10 Oeste 22 Noroeste 0 905.1 -0.4 62
2017-09-02 06:00:00 9.6 10 Oeste 20 Noroeste 0 904.9 -0.8 66
2017-09-02 05:00:00 9.7 7 Oeste 18 Oeste 0 904.8 -1 72
2017-09-02 04:00:00 9.8 4 Norte 12 Norte 0 905.5 -0.4 69
2017-09-02 03:00:00 9.8 3 Sudoeste 17 Norte 0 905.7 0 67
2017-09-02 02:00:00 10.4 8 Norte 16 Norte 0 905.8 0.3 58
2017-09-02 01:00:00 11.4 5 Noroeste 30 Norte 0 905.9 0.9 54
2017-09-02 00:00:00 12.2 11 Noroeste 38 Norte 0 905.7 1.5 50
2017-09-01 23:00:00 12.4 9 Noroeste 23 Oeste 0 905.5 1.5 51
2017-09-01 22:00:00 13 9 Norte 39 Norte 0 905 1.5 52
2017-09-01 21:00:00 13.3 8 Oeste 24 Nordeste 0 904.2 1 58
2017-09-01 20:00:00 14.3 14 Norte 30 Nordeste 0 904 1.2 52
2017-09-01 19:00:00 16.8 5 Sur 44 Norte 0 903.5 0.5 42
2017-09-01 18:00:00 17.2 14 Norte 37 Noroeste 0 903.2 0 40
2017-09-01 17:00:00 19.6 9 Nordeste 40 Sudoeste 0 902.8 -0.7 33
2017-09-01 16:00:00 20.4 9 Oeste 46 Sudoeste 0 903 -0.8 32
2017-09-01 15:00:00 19.2 22 Sudoeste 41 Sudoeste 0 903.2 -1 40
2017-09-01 14:00:00 19.2 18 Sudoeste 39 Sudoeste 0 903.5 -0.7 37
2017-09-01 13:00:00 18.4 18 Sudoeste 39 Sudoeste 0 903.8 -0.2 37
2017-09-01 12:00:00 17.2 10 Sur 19 Sur 0 904.2 0.3 48
2017-09-01 11:00:00 14.8 6 Sur 11 Sur 0 904.2 0.7 59
2017-09-01 10:00:00 12.7 5 Sudeste 10 Nordeste 0 904 0.5 71
2017-09-01 09:00:00 8.8 3 Nordeste 10 Nordeste 0 903.9 0.4 87
2017-09-01 08:00:00 7.4 4 Norte 10 Norte 0 903.5 -0.3 91
2017-09-01 07:00:00 7.7 6 Nordeste 11 Norte 0 903.5 -0.5 93
2017-09-01 06:00:00 8.2 4 Norte 10 Norte 0 903.5 -0.6 91
2017-09-01 05:00:00 7.9 3 Norte 7 Noroeste 0 903.8 -0.5 91
2017-09-01 04:00:00 8.4 3 Nordeste 14 Norte 0 904 -0.5 90
2017-09-01 03:00:00 9.1 6 Nordeste 14 Norte 0 904.1 -0.3 89
2017-09-01 02:00:00 9.6 6 Norte 12 Norte 0 904.3 0.1 88
2017-09-01 01:00:00 10.3 5 Norte 13 Nordeste 0 904.5 0.6 85
2017-09-01 00:00:00 10.3 2 Norte 12 Norte 0 904.4 1.1 85
2017-08-31 23:00:00 11 5 Norte 10 Norte 0 904.2 1.4 84
2017-08-31 22:00:00 12.2 2 Este 10 Nordeste 0 903.9 1.4 79
2017-08-31 21:00:00 13.7 8 Norte 13 Noroeste 0 903.3 0.8 78
2017-08-31 20:00:00 16 5 Oeste 26 Oeste 0 902.8 0.1 62
2017-08-31 19:00:00 18.3 11 Sudoeste 29 Sudoeste 0 902.5 -0.5 55
2017-08-31 18:00:00 19.6 10 Oeste 33 Sudoeste 0 902.5 -0.8 52
2017-08-31 17:00:00 19.9 10 Sudoeste 24 Sudoeste 0.2 902.7 -0.9 52
2017-08-31 16:00:00 19.4 7 Sudoeste 24 Sudoeste 0 903 -1 56
2017-08-31 15:00:00 18.4 8 Oeste 18 Noroeste 0 903.3 -0.6 63
2017-08-31 14:00:00 17.2 4 Sur 18 Sudoeste 0 903.6 -0.1 72
2017-08-31 13:00:00 16.1 6 Sudoeste 14 Sudoeste 0 904 0.5 74
2017-08-31 12:00:00 15.8 8 Sur 12 Sur 0 903.9 0.9 81
2017-08-31 11:00:00 13.5 3 Sudeste 8 Sur 0 903.7 1.2 91
2017-08-31 10:00:00 11.7 3 Este 7 Sur 0 903.5 1.5 94
2017-08-31 09:00:00 11.6 3 Sur 8 Sur 0.2 903 1.1 94
2017-08-31 08:00:00 11.8 2 Sudeste 9 Oeste 2 902.5 0.9 93
2017-08-31 07:00:00 12.3 3 Sur 7 Sudoeste 1.2 902 0.7 92
2017-08-31 06:00:00 12.8 5 Oeste 12 Oeste 0 901.9 0.5 92
2017-08-31 05:00:00 13.2 3 Sudeste 8 Sudoeste 0 901.6 -0.2 93
2017-08-31 04:00:00 13.4 5 Oeste 8 Sudoeste 0 901.3 -0.6 92
2017-08-31 03:00:00 13.9 0 Calma 12 Noroeste 1.2 901.4 -0.1 91
2017-08-31 02:00:00 14.1 8 Norte 12 Norte 1.8 901.8 1 92
2017-08-31 01:00:00 14.5 2 Sudeste 9 Oeste 5 901.9 2 91
2017-08-31 00:00:00 15 4 Oeste 21 Noroeste 3 901.5 1.7 87
2017-08-30 23:00:00 17.3 3 Nordeste 20 Noroeste 0 900.8 1.2 73
2017-08-30 22:00:00 17.9 10 Norte 15 Norte 0 899.9 0.4 69
2017-08-30 21:00:00 19.1 5 Norte 9 Nordeste 0 899.8 0.7 65
2017-08-30 20:00:00 20.1 3 Nordeste 10 Sudoeste 0 899.6 0.2 61
2017-08-30 19:00:00 20.6 5 Oeste 13 Sudoeste 0 899.5 -0.4 56
2017-08-30 18:00:00 21.4 4 Oeste 12 Sudoeste 0 899.1 -1 50
2017-08-30 17:00:00 22.1 2 Sudeste 17 Sur 0 899.4 -0.9 49
2017-08-30 16:00:00 21.9 8 Sur 19 Sur 0 899.9 -0.5 47
2017-08-30 15:00:00 21.7 15 Sur 27 Sur 0 900.1 -0.4 47
2017-08-30 14:00:00 21.6 11 Sur 27 Sur 0 900.3 -0.5 48
2017-08-30 13:00:00 21.1 16 Sur 28 Sur 0 900.4 -0.1 50
2017-08-30 12:00:00 19.5 11 Sudeste 36 Sur -- 900.5 -0.2 52
2017-08-30 11:00:00 19.6 18 Sur 37 Sur 0 900.8 0.4 53
2017-08-30 10:00:00 19.6 8 Sudeste 21 Sur 0 900.5 0.1 54
2017-08-30 09:00:00 16.9 4 Oeste 17 Norte 0 900.7 0.1 63
2017-08-30 08:00:00 16.2 10 Norte 18 Nordeste 0 900.4 -0.4 68
2017-08-30 07:00:00 16 11 Nordeste 27 Sudeste 0 900.4 -0.6 74
2017-08-30 06:00:00 19.1 16 Sur 31 Sur 0 900.6 -0.8 51
2017-08-30 05:00:00 19.4 12 Sudeste 32 Sudeste 0 900.8 -0.4 49
2017-08-30 04:00:00 19.3 16 Sudeste 32 Sudeste 0 901 -0.4 49
2017-08-30 03:00:00 19.4 14 Sudeste 40 Sur 0 901.4 0 49
2017-08-30 02:00:00 19.1 12 Sudeste 27 Nordeste 0 901.2 0.2 50
2017-08-30 01:00:00 18.4 13 Nordeste 25 Nordeste 0 901.4 -0.1 60
2017-08-30 00:00:00 18.4 6 Este 20 Sudeste 0 901.4 0.5 63
2017-08-29 23:00:00 19.5 9 Sudeste 42 Sur 0 901 0.6 59
2017-08-29 22:00:00 20.4 15 Sur 29 Sur 0 901.5 1.2 55
2017-08-29 21:00:00 20.7 7 Sudeste 31 Nordeste 0 900.9 0.9 58
2017-08-29 20:00:00 21.5 16 Sudeste 31 Sur 0 900.4 0.4 54
2017-08-29 19:00:00 22.7 12 Sudeste 27 Sur 0 900.3 0.1 50
2017-08-29 18:00:00 23.1 19 Sur 36 Sudoeste 0 900 -0.5 50
2017-08-29 17:00:00 24.3 21 Sur 33 Sur 0 900 -0.6 51
2017-08-29 16:00:00 24 20 Sur 33 Sur 0 900.2 -0.8 52
2017-08-29 15:00:00 23.8 13 Sur 30 Sur 0 900.5 -1.1 57
2017-08-29 14:00:00 24.4 19 Sur 35 Sur 0 900.6 -1.6 55
2017-08-29 13:00:00 23.3 10 Sur 19 Sur 0 901 -0.7 60
2017-08-29 12:00:00 19 4 Este 14 Nordeste 0 901.6 1.1 82
2017-08-29 11:00:00 16.2 10 Sudoeste 22 Sudoeste 0 902.2 2.1 89
2017-08-29 10:00:00 16.7 3 Nordeste 15 Nordeste 0 901.7 1.8 85
2017-08-29 09:00:00 16.9 12 Nordeste 23 Nordeste 0 900.5 0.2 84
2017-08-29 08:00:00 15.4 15 Nordeste 24 Norte 0 900.1 -0.3 87
2017-08-29 07:00:00 15.4 13 Norte 24 Nordeste 0 899.9 -1 85
2017-08-29 06:00:00 15.1 11 Norte 24 Norte 0 900.3 -1.8 90
2017-08-29 05:00:00 15.1 13 Norte 19 Norte 0 900.4 -2.1 89
2017-08-29 04:00:00 15.4 6 Nordeste 32 Nordeste 0 900.9 -1.1 87
2017-08-29 03:00:00 15.6 19 Nordeste 51 Sudoeste 0 902.1 0.9 93
2017-08-29 02:00:00 17.4 6 Sudeste 13 Sudoeste 0 902.5 1.6 92
2017-08-29 01:00:00 18.3 4 Noroeste 15 Sudoeste 0 902 0.9 85
2017-08-29 00:00:00 18.5 4 Noroeste 14 Norte 0 901.2 0.2 83
2017-08-28 23:00:00 18.3 4 Nordeste 13 Norte 0 900.9 -0.5 85
2017-08-28 22:00:00 18.5 5 Norte 15 Nordeste 0 901.1 -0.6 86
2017-08-28 21:00:00 20.2 2 Sur 18 Noroeste 0 901 0.1 78
2017-08-28 20:00:00 21.2 7 Noroeste 17 Noroeste 0 901.4 1.2 67
2017-08-28 19:00:00 20.6 9 Noroeste 42 Oeste 0 901.7 1.2 75
2017-08-28 18:00:00 26.4 14 Sur 28 Sudoeste 0 900.9 0 40
2017-08-28 17:00:00 28.8 12 Sudoeste 28 Sudoeste 0 900.2 -1.6 33
2017-08-28 16:00:00 31.1 14 Sur 25 Sur 0 900.5 -2 25
2017-08-28 15:00:00 30.6 9 Sur 23 Sudoeste 0 900.9 -1.5 27
2017-08-28 14:00:00 29.4 5 Noroeste 23 Sudoeste 0 901.8 -1.6 30
2017-08-28 13:00:00 28.8 10 Sur 25 Sur 0 902.5 -0.6 29
2017-08-28 12:00:00 26.6 8 Nordeste 16 Nordeste 0 902.4 -0.4 36
2017-08-28 11:00:00 24 2 Sudeste 9 Nordeste 0 903.4 0.9 55
2017-08-28 10:00:00 22.7 6 Nordeste 19 Norte 0 903.1 0.9 52
2017-08-28 09:00:00 19.2 5 Norte 24 Norte 0 902.8 0.6 56
2017-08-28 08:00:00 18.5 10 Norte 23 Nordeste 0 902.5 0 54
2017-08-28 07:00:00 17.8 11 Norte 28 Norte 0 902.2 -0.6 57
2017-08-28 06:00:00 18.1 17 Norte 30 Norte 0 902.2 -0.9 57
2017-08-28 05:00:00 17.2 9 Norte 26 Norte 0 902.5 -0.8 62
2017-08-28 04:00:00 16.4 10 Norte 30 Norte 0 902.8 -0.3 69
2017-08-28 03:00:00 16.4 9 Norte 28 Norte 0 903.1 -0.3 69
2017-08-28 02:00:00 15.9 12 Nordeste 28 Norte 0 903.3 -0.4 76
2017-08-28 01:00:00 16.4 15 Nordeste 27 Norte 0 903.1 -0.7 72
2017-08-28 00:00:00 16 13 Norte 27 Nordeste 0 903.4 -0.6 80
2017-08-27 23:00:00 17.1 17 Nordeste 35 Norte 0 903.7 -1 77
2017-08-27 22:00:00 16.6 19 Norte 29 Nordeste 0 903.8 -1.8 84
2017-08-27 21:00:00 16.6 9 Nordeste 23 Norte 0 904 -1.4 87
2017-08-27 20:00:00 17.1 18 Nordeste 27 Nordeste 0 904.7 0.5 87
2017-08-27 19:00:00 17.8 5 Norte 23 Oeste 0 905.6 2.9 87
2017-08-27 18:00:00 19.3 11 Oeste 24 Sudoeste 0 905.4 3 80
2017-08-27 17:00:00 22.4 13 Oeste 38 Sudoeste 0 904.2 1.3 57
2017-08-27 16:00:00 26.8 13 Sur 31 Sur 0 902.7 -0.9 31
2017-08-27 15:00:00 27.6 14 Sudeste 30 Sur 0 902.4 -1.7 28
2017-08-27 14:00:00 28.4 13 Sudeste 31 Sudeste 0 902.9 -1 28
2017-08-27 13:00:00 26.9 16 Sudeste 31 Sur 0 903.6 0.5 33
2017-08-27 12:00:00 25.3 12 Este 22 Este 0 904.1 1.4 34
2017-08-27 11:00:00 23.8 4 Sudoeste 8 Norte 0 903.9 1.7 43
2017-08-27 10:00:00 22.5 5 Nordeste 15 Nordeste 0 903.1 0.5 49
2017-08-27 09:00:00 21.2 6 Norte 23 Norte 0 902.7 -0.4 51
2017-08-27 08:00:00 20.5 15 Nordeste 25 Norte 0 902.2 -1.5 52
2017-08-27 07:00:00 20.3 17 Norte 30 Norte 0 902.6 -0.5 52
2017-08-27 06:00:00 20 24 Norte 33 Norte 0 903.1 0.3 60
2017-08-27 05:00:00 21.4 6 Norte 14 Nordeste 0 903.7 -0.1 45
2017-08-27 04:00:00 20.9 8 Norte 17 Nordeste 0 903.1 -1.5 46
2017-08-27 03:00:00 22 14 Norte 27 Nordeste 0 902.8 -1.2 41
2017-08-27 02:00:00 19.6 12 Norte 26 Norte 0 903.8 -2.2 53
2017-08-27 01:00:00 18.2 5 Norte 27 Norte 0 904.6 0.1 65
2017-08-27 00:00:00 18.3 24 Nordeste 37 Nordeste 0 904 1.2 66
2017-08-26 23:00:00 19.3 12 Sur 41 Este 0 906 4.4 66
2017-08-26 22:00:00 21.4 22 Este 49 Sur 0 904.5 2.8 48
2017-08-26 21:00:00 26.1 6 Norte 10 Nordeste 0 902.8 0.4 28
2017-08-26 20:00:00 28.3 4 Sudoeste 15 Sur 0 901.6 -0.7 22
2017-08-26 19:00:00 28.9 5 Sudeste 19 Sur 0 901.7 -0.8 21
2017-08-26 18:00:00 29.1 14 Sur 27 Sur 0 902.4 -0.1 21
2017-08-26 17:00:00 30.2 13 Sur 24 Sur 0 902.3 -0.4 17
2017-08-26 16:00:00 30 14 Sudoeste 30 Sur 0 902.5 -0.2 15
2017-08-26 15:00:00 30.7 18 Sur 29 Sur 0 902.5 -0.3 19
2017-08-26 14:00:00 30.1 16 Sudeste 31 Sur 0 902.7 0 22
2017-08-26 13:00:00 30.1 21 Sur 37 Sur 0 902.7 0.2 22
2017-08-26 12:00:00 29.2 15 Sur 33 Sur 0 902.8 0.7 24
2017-08-26 11:00:00 27.5 11 Este 27 Este 0 902.7 0.9 27
2017-08-26 10:00:00 25.9 10 Este 19 Sudeste 0 902.5 0.9 28
2017-08-26 09:00:00 22.6 6 Nordeste 17 Nordeste 0 902.1 0.5 37
2017-08-26 08:00:00 21.1 7 Nordeste 14 Nordeste 0 901.8 0.1 40
2017-08-26 07:00:00 21.3 5 Noroeste 11 Norte 0 901.6 -0.3 39
2017-08-26 06:00:00 21.2 3 Norte 11 Norte 0 901.6 -0.9 40
2017-08-26 05:00:00 21.7 9 Oeste 12 Oeste 0 901.7 -1.3 39
2017-08-26 04:00:00 21.6 3 Sudoeste 11 Norte 0 901.9 -1.2 40
2017-08-26 03:00:00 22.6 5 Oeste 21 Sur 0 902.5 -0.7 38
2017-08-26 02:00:00 23.1 12 Sur 29 Sudeste 0 903 0.5 35
2017-08-26 01:00:00 23.6 9 Este 32 Nordeste 0 903.1 1.2 34
2017-08-26 00:00:00 24.4 18 Sudeste 31 Sudeste 0 903.2 1.6 35